No particular awareness of the weather is required.    There are no Weather-warnings


Meteo18 Weather Cam more information Meteo18 Weather Cam


Thunder radar more information blitzortung!


Rain radar more information rain snow radar


Visit our other weather sites:

Template documentation
and downloads

And another site



Weather Underground History page Text

Daily Summary for January 7, 2017 Units:  English    Metric   Both
« Previous Day
Next Day »
Daily Weekly Monthly Yearly Custom
  High: Low: Average:
Temperature: 32.7 °F 17.2 °F 25.7 °F
Dew Point: 30.2 °F 15.3 °F 22.1 °F
Humidity: 95 % 69 % 86 %
Wind Speed: 6 mph 0 mph 0.7 mph
Wind Gust: 9 mph - -
Wind:- - SW
Pressure: 30.6 in 30.5 in -
Precipitation: 0 in    
Historical Graphs
 
 
Tabular Data for January 7, 2017
Time Temperature Dew Point Pressure Wind Wind Speed Wind Gust Humidity Rainfall Rate (Hourly)
00:07 23.5 °F 19.9 °F 30.6 in NW 1 mph 2 mph 86 % 0 in
00:17 23.5 °F 19.9 °F 30.6 in NW 1 mph 3 mph 86 % 0 in
00:22 23.5 °F 19.8 °F 30.6 in Calm   3 mph 85 % 0 in
00:27 23.4 °F 19.8 °F 30.6 in Calm   3 mph 86 % 0 in
00:32 23.2 °F 19.6 °F 30.6 in NNE 1 mph 2 mph 86 % 0 in
00:37 23.2 °F 19.6 °F 30.6 in Calm   1 mph 86 % 0 in
00:47 23.2 °F 19.6 °F 30.6 in Calm   1 mph 86 % 0 in
00:52 23.2 °F 19.6 °F 30.6 in Calm   1 mph 86 % 0 in
00:57 23.2 °F 19.6 °F 30.6 in North 1 mph 2 mph 86 % 0 in
01:02 23 °F 19.4 °F 30.6 in NNE 2 mph 2 mph 86 % 0 in
01:07 22.8 °F 19.2 °F 30.6 in Calm   2 mph 86 % 0 in
01:12 22.5 °F 19.2 °F 30.6 in Calm   2 mph 87 % 0 in
01:17 22.5 °F 19.2 °F 30.6 in Calm   2 mph 87 % 0 in
01:22 22.5 °F 19.2 °F 30.6 in Calm   2 mph 87 % 0 in
01:27 22.5 °F 19.2 °F 30.6 in Calm   1 mph 87 % 0 in
01:32 22.3 °F 18.7 °F 30.6 in Calm   1 mph 86 % 0 in
01:37 21.9 °F 18.7 °F 30.6 in Calm   1 mph 87 % 0 in
01:42 21.9 °F 18.7 °F 30.6 in Calm   1 mph 87 % 0 in
01:47 22.1 °F 18.9 °F 30.6 in Calm     87 % 0 in
01:52 21.9 °F 18.7 °F 30.6 in Calm     87 % 0 in
01:57 21.6 °F 18.3 °F 30.6 in Calm     87 % 0 in
02:02 21.6 °F 18.5 °F 30.6 in Calm     88 % 0 in
02:12 21.7 °F 18.7 °F 30.6 in Calm   1 mph 88 % 0 in
02:17 21.9 °F 18.7 °F 30.6 in Calm   1 mph 87 % 0 in
02:22 21.6 °F 18.5 °F 30.6 in Calm   1 mph 88 % 0 in
02:27 21.6 °F 18.5 °F 30.6 in Calm   1 mph 88 % 0 in
02:37 21.6 °F 18.5 °F 30.6 in Calm   1 mph 88 % 0 in
02:42 21.7 °F 18.7 °F 30.6 in Calm   1 mph 88 % 0 in
02:47 21.4 °F 18.1 °F 30.6 in Calm   1 mph 87 % 0 in
02:52 21 °F 18 °F 30.6 in Calm   1 mph 88 % 0 in
02:57 21 °F 18.3 °F 30.6 in Calm   1 mph 89 % 0 in
03:02 21 °F 18.3 °F 30.6 in Calm   1 mph 89 % 0 in
03:07 20.8 °F 18.1 °F 30.6 in Calm   1 mph 89 % 0 in
03:12 20.8 °F 18.1 °F 30.6 in Calm     89 % 0 in
03:17 20.8 °F 18.1 °F 30.6 in Calm   1 mph 89 % 0 in
03:22 20.8 °F 18.1 °F 30.6 in Calm   1 mph 89 % 0 in
03:27 20.8 °F 18.1 °F 30.6 in Calm   1 mph 89 % 0 in
03:32 20.8 °F 18.1 °F 30.6 in Calm   1 mph 89 % 0 in
03:42 21 °F 18.3 °F 30.6 in Calm   1 mph 89 % 0 in
03:47 21 °F 18.3 °F 30.6 in Calm   1 mph 89 % 0 in
03:52 21 °F 18 °F 30.6 in Calm   1 mph 88 % 0 in
03:57 20.8 °F 17.8 °F 30.6 in Calm     88 % 0 in
04:02 20.5 °F 17.8 °F 30.6 in Calm   1 mph 89 % 0 in
04:07 20.1 °F 17.4 °F 30.6 in Calm   1 mph 89 % 0 in
04:12 19.9 °F 17.4 °F 30.6 in Calm   1 mph 90 % 0 in
04:17 19.8 °F 17.2 °F 30.6 in WNW 1 mph 1 mph 90 % 0 in
04:22 19.4 °F 17.2 °F 30.6 in Calm   1 mph 91 % 0 in
04:27 19.6 °F 17.4 °F 30.6 in Calm   1 mph 91 % 0 in
04:32 19.6 °F 17.4 °F 30.6 in Calm   1 mph 91 % 0 in
04:37 19.8 °F 17.2 °F 30.6 in Calm     90 % 0 in
04:42 19.6 °F 17.1 °F 30.6 in Calm     90 % 0 in
04:47 19 °F 16.5 °F 30.6 in Calm     90 % 0 in
04:52 19.2 °F 17.2 °F 30.6 in Calm   1 mph 92 % 0 in
05:02 19.4 °F 17.2 °F 30.6 in WNW 1 mph 1 mph 91 % 0 in
05:07 19 °F 16.5 °F 30.6 in Calm   1 mph 90 % 0 in
05:12 18.5 °F 16.3 °F 30.6 in Calm   1 mph 91 % 0 in
05:17 18.7 °F 16.7 °F 30.6 in Calm   1 mph 92 % 0 in
05:22 19 °F 17.1 °F 30.6 in Calm     92 % 0 in
05:27 18.7 °F 16.5 °F 30.6 in Calm     91 % 0 in
05:32 18.9 °F 16.9 °F 30.6 in Calm     92 % 0 in
05:37 19 °F 17.1 °F 30.6 in Calm     92 % 0 in
05:42 19.2 °F 17.2 °F 30.6 in Calm     92 % 0 in
05:52 19.2 °F 17.1 °F 30.6 in Calm     91 % 0 in
05:57 19.2 °F 17.1 °F 30.6 in Calm     91 % 0 in
06:02 19 °F 16.9 °F 30.6 in Calm     91 % 0 in
06:07 19 °F 17.1 °F 30.6 in Calm     92 % 0 in
06:12 19 °F 17.1 °F 30.6 in Calm     92 % 0 in
06:17 18.9 °F 16.9 °F 30.6 in Calm     92 % 0 in
06:22 18.9 °F 16.9 °F 30.6 in Calm     92 % 0 in
06:32 18.5 °F 16.5 °F 30.6 in Calm     92 % 0 in
06:42 18.1 °F 16.2 °F 30.6 in Calm     92 % 0 in
06:47 17.8 °F 15.8 °F 30.6 in Calm     92 % 0 in
06:52 17.8 °F 15.8 °F 30.6 in Calm     92 % 0 in
07:02 17.8 °F 16.2 °F 30.6 in Calm     93 % 0 in
07:12 18.1 °F 16.5 °F 30.6 in Calm     93 % 0 in
07:17 18.3 °F 16.7 °F 30.6 in Calm     93 % 0 in
07:22 18.1 °F 16.2 °F 30.6 in Calm     92 % 0 in
07:27 18 °F 16.3 °F 30.6 in Calm     93 % 0 in
07:32 18.1 °F 16.5 °F 30.6 in Calm     93 % 0 in
07:37 18.1 °F 16.5 °F 30.6 in Calm     93 % 0 in
07:42 18 °F 16 °F 30.6 in Calm     92 % 0 in
07:47 18.1 °F 16.5 °F 30.6 in Calm     93 % 0 in
07:52 17.8 °F 15.8 °F 30.6 in Calm     92 % 0 in
07:57 17.6 °F 15.6 °F 30.6 in Calm     92 % 0 in
08:02 17.6 °F 16 °F 30.6 in Calm     93 % 0 in
08:07 17.8 °F 16.2 °F 30.6 in Calm     93 % 0 in
08:12 17.8 °F 16.2 °F 30.6 in North 1 mph   93 % 0 in
08:17 18 °F 16.3 °F 30.6 in Calm   1 mph 93 % 0 in
08:22 18.3 °F 16.7 °F 30.6 in Calm   1 mph 93 % 0 in
08:27 18.1 °F 16.2 °F 30.6 in Calm   1 mph 92 % 0 in
08:32 17.8 °F 15.8 °F 30.6 in Calm   1 mph 92 % 0 in
08:37 17.4 °F 15.4 °F 30.6 in Calm   1 mph 92 % 0 in
08:42 17.2 °F 15.3 °F 30.6 in Calm   1 mph 92 % 0 in
08:47 17.4 °F 15.8 °F 30.6 in Calm     93 % 0 in
08:52 17.4 °F 15.8 °F 30.6 in Calm     93 % 0 in
08:57 17.4 °F 15.8 °F 30.6 in Calm     93 % 0 in
09:02 17.4 °F 15.8 °F 30.6 in Calm     93 % 0 in
09:07 17.6 °F 16 °F 30.6 in Calm     93 % 0 in
09:12 18 °F 16.3 °F 30.6 in Calm     93 % 0 in
09:17 18.7 °F 17.1 °F 30.6 in Calm     93 % 0 in
09:22 19.4 °F 17.8 °F 30.6 in Calm     93 % 0 in
09:32 19.8 °F 17.8 °F 30.6 in Calm     92 % 0 in
09:37 20.5 °F 18.5 °F 30.6 in Calm     92 % 0 in
09:42 21.6 °F 19.6 °F 30.6 in Calm     92 % 0 in
09:47 21.6 °F 19 °F 30.6 in Calm     90 % 0 in
09:52 22.1 °F 19.6 °F 30.6 in Calm     90 % 0 in
10:02 22.3 °F 19 °F 30.6 in Calm   1 mph 87 % 0 in
10:07 21.9 °F 18.9 °F 30.6 in Calm   1 mph 88 % 0 in
10:12 22.3 °F 19.6 °F 30.6 in Calm   1 mph 89 % 0 in
10:17 22.8 °F 20.3 °F 30.6 in Calm   1 mph 90 % 0 in
10:27 24.8 °F 21.2 °F 30.6 in Calm     86 % 0 in
10:32 25.3 °F 21.4 °F 30.6 in Calm     85 % 0 in
10:37 26.2 °F 22.6 °F 30.6 in Calm     86 % 0 in
10:42 26.4 °F 22.3 °F 30.6 in Calm     84 % 0 in
10:52 27.3 °F 22.6 °F 30.6 in Calm     82 % 0 in
10:57 27.3 °F 21.9 °F 30.6 in Calm     80 % 0 in
11:02 26.4 °F 21.4 °F 30.6 in Calm   1 mph 81 % 0 in
11:12 26.4 °F 21.7 °F 30.6 in Calm   1 mph 82 % 0 in
11:22 26.8 °F 22.8 °F 30.6 in Calm   2 mph 85 % 0 in
11:27 27 °F 23 °F 30.6 in Calm   2 mph 85 % 0 in
11:37 27.3 °F 22.8 °F 30.6 in SSE 1 mph 2 mph 83 % 0 in
11:42 27.7 °F 23.2 °F 30.6 in South 3 mph 3 mph 83 % 0 in
11:47 27.9 °F 23 °F 30.6 in South 2 mph 4 mph 82 % 0 in
11:57 28 °F 23.2 °F 30.6 in Calm   4 mph 82 % 0 in
12:02 28.6 °F 23.7 °F 30.6 in SSW 1 mph 3 mph 82 % 0 in
12:07 28.9 °F 23.9 °F 30.6 in Calm   3 mph 81 % 0 in
12:17 28.9 °F 23.5 °F 30.6 in SSE 1 mph 2 mph 80 % 0 in
12:22 28.8 °F 23 °F 30.6 in SW 1 mph 4 mph 79 % 0 in
12:27 28.8 °F 23.7 °F 30.6 in SW 1 mph 4 mph 81 % 0 in
12:37 28.9 °F 23.5 °F 30.6 in South 1 mph 3 mph 80 % 0 in
12:47 29.7 °F 24.3 °F 30.6 in SSW 1 mph 3 mph 80 % 0 in
12:57 29.8 °F 23.5 °F 30.6 in SSW 3 mph 4 mph 77 % 0 in
13:02 30.2 °F 23.9 °F 30.6 in SSW 3 mph 4 mph 77 % 0 in
13:07 30.2 °F 23.9 °F 30.6 in SW 4 mph 4 mph 77 % 0 in
13:12 30.4 °F 24.1 °F 30.6 in SSW 2 mph 4 mph 77 % 0 in
13:17 30.4 °F 23.7 °F 30.6 in SSW 1 mph 4 mph 76 % 0 in
13:27 30.9 °F 24.3 °F 30.6 in SSW 1 mph 3 mph 76 % 0 in
13:32 30.9 °F 24.3 °F 30.6 in SSW 2 mph 3 mph 76 % 0 in
13:37 31.3 °F 25 °F 30.6 in SSE 1 mph 3 mph 77 % 0 in
13:42 31.3 °F 24.6 °F 30.6 in SSE 3 mph 3 mph 76 % 0 in
13:47 31.3 °F 24.3 °F 30.6 in SSE 2 mph 3 mph 75 % 0 in
13:52 31.3 °F 23.9 °F 30.6 in SSE 1 mph 4 mph 74 % 0 in
13:57 31.6 °F 23.7 °F 30.6 in South 2 mph 4 mph 72 % 0 in
14:02 31.8 °F 23.9 °F 30.6 in SW 2 mph 4 mph 72 % 0 in
14:07 31.6 °F 22.6 °F 30.6 in Calm   3 mph 69 % 0 in
14:12 31.8 °F 23.2 °F 30.6 in Calm   3 mph 70 % 0 in
14:17 31.8 °F 23.2 °F 30.6 in SW 1 mph 3 mph 70 % 0 in
14:22 32.2 °F 23.5 °F 30.6 in SSW 1 mph 2 mph 70 % 0 in
14:32 32 °F 24.1 °F 30.6 in SW 2 mph 3 mph 72 % 0 in
14:37 32.2 °F 24.3 °F 30.6 in SSE 1 mph 4 mph 72 % 0 in
14:42 32.2 °F 24.3 °F 30.6 in SSE 1 mph 4 mph 72 % 0 in
14:47 32.2 °F 24.3 °F 30.6 in SW 2 mph 4 mph 72 % 0 in
14:57 32.4 °F 25 °F 30.6 in SW 2 mph 5 mph 74 % 0 in
15:02 32.4 °F 24.3 °F 30.6 in SSW 1 mph 5 mph 72 % 0 in
15:07 32.4 °F 24.1 °F 30.6 in SSW 2 mph 5 mph 71 % 0 in
15:12 32.4 °F 24.1 °F 30.6 in South 3 mph 5 mph 71 % 0 in
15:22 32.4 °F 24.6 °F 30.6 in SW 4 mph 5 mph 73 % 0 in
15:52 32.5 °F 25.9 °F 30.6 in Calm   2 mph 76 % 0 in
15:57 32.7 °F 26.2 °F 30.6 in SSW 1 mph 2 mph 77 % 0 in
16:02 32.5 °F 25.5 °F 30.6 in SSW 2 mph 2 mph 75 % 0 in
16:07 32.5 °F 25.2 °F 30.6 in South 2 mph 2 mph 74 % 0 in
16:12 32.5 °F 25.9 °F 30.6 in South 1 mph 3 mph 76 % 0 in
16:22 32.5 °F 25.9 °F 30.6 in SSW 2 mph 3 mph 76 % 0 in
16:27 32.5 °F 25.5 °F 30.6 in SSW 1 mph 3 mph 75 % 0 in
16:37 32.5 °F 25.9 °F 30.6 in SSW 3 mph 3 mph 76 % 0 in
16:42 32.5 °F 25.5 °F 30.6 in SW 3 mph 4 mph 75 % 0 in
16:52 32.5 °F 25.9 °F 30.6 in SSW 2 mph 4 mph 76 % 0 in
16:57 32.4 °F 25.3 °F 30.6 in SSW 2 mph 4 mph 75 % 0 in
17:02 32.4 °F 25.9 °F 30.6 in South 1 mph 4 mph 77 % 0 in
17:07 32.4 °F 25.9 °F 30.6 in SSW 1 mph 4 mph 77 % 0 in
17:12 32.2 °F 26.4 °F 30.6 in SW 1 mph 4 mph 79 % 0 in
17:17 32.2 °F 26.4 °F 30.6 in Calm   4 mph 79 % 0 in
17:22 32 °F 26.8 °F 30.6 in Calm   3 mph 81 % 0 in
17:27 32 °F 27.1 °F 30.6 in Calm   3 mph 82 % 0 in
17:37 31.8 °F 27 °F 30.6 in Calm   1 mph 82 % 0 in
17:47 31.8 °F 27.3 °F 30.6 in Calm   1 mph 83 % 0 in
17:52 31.8 °F 27 °F 30.6 in Calm   1 mph 82 % 0 in
18:02 31.8 °F 26.6 °F 30.6 in Calm   1 mph 81 % 0 in
18:07 32 °F 26.8 °F 30.6 in Calm   1 mph 81 % 0 in
18:12 32 °F 27.1 °F 30.6 in Calm   1 mph 82 % 0 in
18:22 32.4 °F 28.6 °F 30.6 in West 2 mph 5 mph 86 % 0 in
18:32 32.2 °F 28.8 °F 30.6 in WSW 2 mph 7 mph 87 % 0 in
18:42 31.5 °F 28.9 °F 30.6 in SW 2 mph 7 mph 90 % 0 in
18:47 31.3 °F 29.3 °F 30.6 in West 3 mph 5 mph 92 % 0 in
18:57 31.1 °F 29.3 °F 30.6 in West 1 mph 5 mph 93 % 0 in
19:07 30.9 °F 29.1 °F 30.6 in West 1 mph 4 mph 93 % 0 in
19:12 30.9 °F 29.1 °F 30.6 in Calm   5 mph 93 % 0 in
19:22 30.7 °F 28.9 °F 30.6 in WSW 1 mph 4 mph 93 % 0 in
19:27 30.7 °F 28.9 °F 30.6 in West 2 mph 4 mph 93 % 0 in
19:32 30.9 °F 29.1 °F 30.6 in WSW 1 mph 4 mph 93 % 0 in
19:37 30.9 °F 29.1 °F 30.6 in WSW 1 mph 4 mph 93 % 0 in
19:42 30.9 °F 28.9 °F 30.6 in SW 2 mph 3 mph 92 % 0 in
19:47 30.9 °F 28.9 °F 30.6 in WSW 1 mph 3 mph 92 % 0 in
19:57 30.9 °F 28.4 °F 30.6 in SSW 2 mph 5 mph 90 % 0 in
20:07 31.3 °F 28.4 °F 30.6 in SW 1 mph 4 mph 89 % 0 in
20:12 31.3 °F 28.2 °F 30.6 in SW 1 mph 4 mph 88 % 0 in
20:17 31.3 °F 28.2 °F 30.6 in SW 2 mph 4 mph 88 % 0 in
20:22 31.3 °F 27.9 °F 30.6 in SSW 1 mph 3 mph 87 % 0 in
20:27 31.5 °F 28 °F 30.6 in SW 1 mph 3 mph 87 % 0 in
20:37 31.6 °F 27.9 °F 30.6 in WSW 6 mph 6 mph 86 % 0 in
20:47 31.8 °F 28 °F 30.6 in SW 2 mph 7 mph 86 % 0 in
20:52 31.6 °F 28.2 °F 30.6 in SW 2 mph 7 mph 87 % 0 in
21:02 31.6 °F 28.2 °F 30.6 in WSW 4 mph 7 mph 87 % 0 in
21:12 31.6 °F 28.2 °F 30.5 in WSW 2 mph 9 mph 87 % 0 in
21:17 31.6 °F 28.2 °F 30.5 in West 6 mph 8 mph 87 % 0 in
21:22 31.6 °F 28.8 °F 30.5 in WSW 4 mph 8 mph 89 % 0 in
21:27 31.6 °F 29.1 °F 30.5 in WSW 1 mph 7 mph 90 % 0 in
21:32 31.5 °F 29.1 °F 30.5 in Calm   6 mph 91 % 0 in
21:37 31.5 °F 29.1 °F 30.5 in SW 2 mph 5 mph 91 % 0 in
21:42 31.5 °F 29.1 °F 30.5 in Calm   4 mph 91 % 0 in
21:47 31.5 °F 29.5 °F 30.5 in Calm   6 mph 92 % 0 in
21:52 31.5 °F 29.5 °F 30.5 in West 2 mph 6 mph 92 % 0 in
21:57 31.6 °F 29.3 °F 30.5 in West 3 mph 6 mph 91 % 0 in
22:07 31.6 °F 29.3 °F 30.5 in WSW 2 mph 5 mph 91 % 0 in
22:12 31.6 °F 29.1 °F 30.5 in Calm   5 mph 90 % 0 in
22:17 31.6 °F 29.1 °F 30.5 in WSW 2 mph 4 mph 90 % 0 in
22:22 31.6 °F 29.1 °F 30.5 in SW 1 mph 5 mph 90 % 0 in
22:32 31.5 °F 28.9 °F 30.5 in Calm   5 mph 90 % 0 in
22:37 31.5 °F 29.1 °F 30.5 in West 1 mph 3 mph 91 % 0 in
22:47 31.3 °F 29.3 °F 30.5 in WSW 1 mph 4 mph 92 % 0 in
22:52 31.3 °F 29.5 °F 30.5 in WSW 3 mph 4 mph 93 % 0 in
22:57 31.1 °F 29.3 °F 30.5 in WSW 1 mph 6 mph 93 % 0 in
23:07 30.9 °F 29.5 °F 30.5 in SSW 4 mph 6 mph 94 % 0 in
23:12 30.9 °F 29.7 °F 30.5 in WSW 2 mph 6 mph 95 % 0 in
23:17 30.9 °F 29.7 °F 30.5 in WSW 2 mph 6 mph 95 % 0 in
23:27 30.9 °F 29.7 °F 30.5 in Calm   5 mph 95 % 0 in
23:32 31.1 °F 29.8 °F 30.5 in WSW 1 mph 3 mph 95 % 0 in
23:37 31.3 °F 30 °F 30.5 in Calm   3 mph 95 % 0 in
23:42 31.3 °F 30 °F 30.5 in SW 2 mph 3 mph 95 % 0 in
23:52 31.5 °F 30.2 °F 30.5 in Calm   2 mph 95 % 0 in
Meteo18
Compliments of Weather Underground - 4 mb

Script developed by  Jim McMurry - jmcmurry@mwt.net Adapted for the template by  Wim van der Kuil - Leuven-Template.eu

You find our weather info also at:

European Weather Network

Weather Underground

Equipment we use:

Weather-station
Davis Vue

Weather-program
Meteohub

Weather-server
Raspberry PI 2 B+

Provider
1 and 1

Davis Vue

Meteohub

Raspberry PI 2 B+

1 and 1